Terminal Aerodrome Forecast
Issued by NWS Omaha/Valley, NE

Home | Current Version | Previous Version | Text Only | Print | Product List | Glossary Off
Versions: 1 2 3 4 5 6 7 8 9 10 11 12 13 14 15 16 17 18 19 20 21 22 23 24 25 26 27 28 29 30 31 32 33 34 35 36 37 38 39 40 41 42 43 44

000
FTUS43 KOAX 260203 AAA
TAFOFK
TAF AMD
KOFK 260203Z 2602/2624 16010KT P6SM OVC150 WS020/18035KT
     FM260600 17009KT P6SM VCTS BKN090CB
      TEMPO 2607/2611 4SM TSRA BKN050CB
     FM261200 11006KT P6SM SHRA VCTS OVC070CB
     FM261400 06007KT P6SM SHRA VCTS OVC070CB=

USA.gov is the U.S. government's official web portal to all federal, state and local government web resources and services.